الصفحة الرئيسية
METAR-TAF:

METAR-TAF

مطار :

مطار القيصومة المحلي

القيصومة, السعودية

دائرة عرض: 28-19N, خط طول: 046-07E, ارتفاع: 358 متر

مراقبة الطقس الحالي

تاريخ ووقت الإصدار 1ساعة و 17 دقيقة قبل الساعة 15:00UTC
ريح 14 عقدة من الشمال
درجة الحرارة 45°درجة مئوية
الرطوبة 7%
ضغط 1000 hPa
الرؤية: 8000 متر

METAR: OEPA 201500Z 36014KT 8000 NSC 45/01 Q1000 NOSIG

زمن: 19:17 (16:17 UTC)

توقعات

تاريخ ووقت الإصدار 7ساعات و 17 دقيقة قبل الساعة 09:00UTC
التوقعات صالحة من20 الساعة 12 UTC إلى 21 الساعة 18 UTC
ريح 10 عقدة من الشمال/الشمال الغربي
الرؤية 10 كم أو أكثر
الغيوم لا تقل 1500 م ولا وجود لمزنة ركامية السحاب الأسود
مؤقت
من 20 الساعة 12 UTC إلى 20 الساعة 16 UTC
ريح 20 عقدة من الشمال/الشمال الغربي تتزايد حتى 30 عقدة
الرؤية: 4000 متر
هبوب الغبار
مؤقت
من 21 الساعة 09 UTC إلى 21 الساعة 16 UTC
ريح 20 عقدة من الشمال/الشمال الغربي تتزايد حتى 30 عقدة
الرؤية: 4000 متر
هبوب الغبار,

TAF: OEPA 200900Z 2012/2118 34010KT CAVOK TEMPO 2012/2016 34020G30KT 4000 BLDU TEMPO 2109/2116 34020G30KT 4000 BLDU

أرصاد الطقس والتوقعات من أكثر من 4000 مطار (تقارير الطقس للمطار METAR والتنبؤ بالطقس بالمطارTAF).

المحطات المتاحة هي النقط الصفراء والحمراء على الخريطة.

حرك المؤشر فوق النقطة لمعرفة اسم المحطة.

ثم انقر لمعرفة أرصاد وتوقعات الطقس.

لتغيير الخارطة: اضغط على الأزرار الخضراء مع رمز الصليب الأسود للتكبير. على الزر الأخضر مع شرطة للتصغير، أو على الأسهم الخضراء للخرائط المجاورة.


METAR-TAF: